MSC Gina — 3FLY9 — position and weather

sailwx.info

Track history (hours):
 
Tides and Currents Weather Stations Pressure Air Temp Water Temp Dewpoint Dewpoint Depression Visibility Wind Speed Wind Dir Waves Ship Positions

MSC Gina

Last reported at 2016-Jul-10 20:19 UTC. Time now 2016-Jul-25 17:52 UTC.
Position N 14°41' W 017°26'.
Warning: this ship's position is 14 days out of date.

Length 259 m; draft 11 m.

Type: Ship (hazmat cat A). MMSI: 357542000.

Date/timePositionNaut miles runAvg speedWind from/ knotsBaromVisibWave heightAir tempDewpointWater temp
2016-Jul-10 20:19N 14°41' W 017°26'0 0.0
2016-Jul-10 19:28N 14°41' W 017°26'0 0.0
2016-Jul-10 18:31N 14°41' W 017°26'0 0.0
2016-Jul-10 17:31N 14°41' W 017°26'0 0.0
2016-Jul-10 16:28N 14°41' W 017°26'0 0.0
2016-Jul-10 15:28N 14°41' W 017°26'0 0.0
2016-Jul-10 14:31N 14°41' W 017°26'0 0.0
2016-Jul-10 13:31N 14°41' W 017°26'0 0.0
2016-Jul-10 12:31N 14°41' W 017°26'0 0.0
2016-Jul-10 11:31N 14°41' W 017°26'0 0.0
2016-Jul-10 10:31N 14°41' W 017°26'0 0.0
2016-Jul-10 09:31N 14°41' W 017°26'0 0.0
2016-Jul-10 08:31N 14°41' W 017°26'0 0.0
2016-Jul-10 07:22N 14°41' W 017°26'2 2.8
2016-Jul-10 06:33N 14°41' W 017°23'4 3.5
2016-Jul-10 05:33N 14°37' W 017°23'1111.1
2016-Jul-10 04:33N 14°39' W 017°34'2017.0
2016-Jul-10 03:24N 14°58' W 017°40'3418.6
2016-Jul-10 01:33N 15°33' W 017°40'1918.9
2016-Jul-10 00:33N 15°52' W 017°40'71915.5
2016-Jul-08 02:12N 27°39' W 015°19'710.4
2016-Jul-08 01:33N 27°46' W 015°17'1414.5
2016-Jul-08 00:33N 28°00' W 015°16'1010.4
2016-Jul-07 23:34N 28°07' W 015°24'1 0.8
2016-Jul-07 22:32N 28°08' W 015°25'0 0.0
2016-Jul-07 21:32N 28°08' W 015°25'0 0.0
2016-Jul-07 20:32N 28°08' W 015°25'0 0.0
2016-Jul-07 19:32N 28°08' W 015°25'0 0.0
2016-Jul-07 18:32N 28°08' W 015°25'0 0.0
2016-Jul-07 17:32N 28°08' W 015°25'0 0.0
2016-Jul-07 16:32N 28°08' W 015°25'0 0.0
2016-Jul-07 15:32N 28°08' W 015°25'0 0.0
2016-Jul-07 14:32N 28°08' W 015°25'0 0.0
2016-Jul-07 13:23N 28°08' W 015°25'0 0.0
2016-Jul-07 12:23N 28°08' W 015°25'0 0.0
2016-Jul-07 11:26N 28°08' W 015°25'0 0.0
2016-Jul-07 10:32N 28°08' W 015°25'2 1.8
2016-Jul-07 09:33N 28°07' W 015°23'1111.4
2016-Jul-07 08:33N 28°15' W 015°14'2020.0
2016-Jul-07 07:33N 28°30' W 014°58'2019.7
2016-Jul-07 06:33N 28°44' W 014°43'1919.3
2016-Jul-07 05:33N 28°58' W 014°27'2019.6
2016-Jul-07 04:33N 29°12' W 014°11'2019.7
2016-Jul-07 03:33N 29°26' W 013°56'2019.5
2016-Jul-07 02:33N 29°40' W 013°40'55419.1
2016-Jul-05 21:30N 35°58' W 005°37'1515.8
2016-Jul-05 20:33N 36°02' W 005°19'20216.8
2016-Jul-05 08:31N 37°05' W 001°20'1819.4
2016-Jul-05 07:33N 37°16' W 001°02'1919.4
2016-Jul-05 06:33N 37°28' W 000°43'3819.1
2016-Jul-05 04:33N 37°59' W 000°14'2119.3
2016-Jul-05 03:27N 38°17' W 000°00'2019.2
2016-Jul-05 02:24N 38°34' E 000°15'5217.3
2016-Jul-04 23:25N 39°21' W 000°09'9 9.5
2016-Jul-04 22:28N 39°26' W 000°20'0 0.0
2016-Jul-04 21:28N 39°26' W 000°20'0 0.0
2016-Jul-04 19:31N 39°26' W 000°20'0 0.0
2016-Jul-04 18:28N 39°26' W 000°20'0 0.0
2016-Jul-04 17:16N 39°26' W 000°20'0 0.0
2016-Jul-04 16:28N 39°26' W 000°20'0 0.0
2016-Jul-04 15:28N 39°26' W 000°20'0 0.0
2016-Jul-04 14:31N 39°26' W 000°20'0 0.0
2016-Jul-04 13:28N 39°26' W 000°20'0 0.0
2016-Jul-04 12:28N 39°26' W 000°20'0 0.0
2016-Jul-04 11:28N 39°26' W 000°20'0 0.0
2016-Jul-04 10:32N 39°26' W 000°20'3 2.6
2016-Jul-04 09:33N 39°25' W 000°17'1 0.0
2016-Jul-02 23:33N 39°24' W 000°16'4 3.6
2016-Jul-02 22:33N 39°26' W 000°19'0 0.0
2016-Jul-02 21:33N 39°26' W 000°19'0 0.0
2016-Jul-02 20:30N 39°26' W 000°19'0 0.0
2016-Jul-02 19:18N 39°26' W 000°19'0 0.0
2016-Jul-02 17:33N 39°26' W 000°19'0 0.0
2016-Jul-02 16:30N 39°26' W 000°19'0 0.0
2016-Jul-02 15:33N 39°26' W 000°19'0 0.0
2016-Jul-02 14:30N 39°26' W 000°19'0 0.0
2016-Jul-02 13:30N 39°26' W 000°19'0 0.0
2016-Jul-02 12:33N 39°26' W 000°19'0 0.0
2016-Jul-02 11:33N 39°26' W 000°19'0 0.0
2016-Jul-02 10:30N 39°26' W 000°19'0 0.0
2016-Jul-02 09:33N 39°26' W 000°19'0 0.0
2016-Jul-02 08:33N 39°26' W 000°19'0 0.0
2016-Jul-02 07:30N 39°26' W 000°19'0 0.0
2016-Jul-02 06:33N 39°26' W 000°19'0 0.0
2016-Jul-02 04:33N 39°26' W 000°19'5 4.9
2016-Jul-02 03:33N 39°25' W 000°13'35 1.2
2016-Jun-30 21:33N 39°58' E 000°05'  
Track history (hours):
 
Tides and Currents Weather Stations Pressure Air Temp Water Temp Dewpoint Dewpoint Depression Visibility Wind Speed Wind Dir Waves Ship Positions

MSC Gina

Last reported at 2016-Jul-10 20:19 UTC. Time now 2016-Jul-25 17:52 UTC.
Position N 14°41' W 017°26'.
Warning: this ship's position is 14 days out of date.

Length 259 m; draft 11 m.

Type: Ship (hazmat cat A). MMSI: 357542000.

Date/timePositionNaut miles runAvg speedWind from/ knotsBaromVisibWave heightAir tempDewpointWater temp
2016-Jul-10 20:19N 14°41' W 017°26'0 0.0
2016-Jul-10 19:28N 14°41' W 017°26'0 0.0
2016-Jul-10 18:31N 14°41' W 017°26'0 0.0
2016-Jul-10 17:31N 14°41' W 017°26'0 0.0
2016-Jul-10 16:28N 14°41' W 017°26'0 0.0
2016-Jul-10 15:28N 14°41' W 017°26'0 0.0
2016-Jul-10 14:31N 14°41' W 017°26'0 0.0
2016-Jul-10 13:31N 14°41' W 017°26'0 0.0
2016-Jul-10 12:31N 14°41' W 017°26'0 0.0
2016-Jul-10 11:31N 14°41' W 017°26'0 0.0
2016-Jul-10 10:31N 14°41' W 017°26'0 0.0
2016-Jul-10 09:31N 14°41' W 017°26'0 0.0
2016-Jul-10 08:31N 14°41' W 017°26'0 0.0
2016-Jul-10 07:22N 14°41' W 017°26'2 2.8
2016-Jul-10 06:33N 14°41' W 017°23'4 3.5
2016-Jul-10 05:33N 14°37' W 017°23'1111.1
2016-Jul-10 04:33N 14°39' W 017°34'2017.0
2016-Jul-10 03:24N 14°58' W 017°40'3418.6
2016-Jul-10 01:33N 15°33' W 017°40'1918.9
2016-Jul-10 00:33N 15°52' W 017°40'71915.5
2016-Jul-08 02:12N 27°39' W 015°19'710.4
2016-Jul-08 01:33N 27°46' W 015°17'1414.5
2016-Jul-08 00:33N 28°00' W 015°16'1010.4
2016-Jul-07 23:34N 28°07' W 015°24'1 0.8
2016-Jul-07 22:32N 28°08' W 015°25'0 0.0
2016-Jul-07 21:32N 28°08' W 015°25'0 0.0
2016-Jul-07 20:32N 28°08' W 015°25'0 0.0
2016-Jul-07 19:32N 28°08' W 015°25'0 0.0
2016-Jul-07 18:32N 28°08' W 015°25'0 0.0
2016-Jul-07 17:32N 28°08' W 015°25'0 0.0
2016-Jul-07 16:32N 28°08' W 015°25'0 0.0
2016-Jul-07 15:32N 28°08' W 015°25'0 0.0
2016-Jul-07 14:32N 28°08' W 015°25'0 0.0
2016-Jul-07 13:23N 28°08' W 015°25'0 0.0
2016-Jul-07 12:23N 28°08' W 015°25'0 0.0
2016-Jul-07 11:26N 28°08' W 015°25'0 0.0
2016-Jul-07 10:32N 28°08' W 015°25'2 1.8
2016-Jul-07 09:33N 28°07' W 015°23'1111.4
2016-Jul-07 08:33N 28°15' W 015°14'2020.0
2016-Jul-07 07:33N 28°30' W 014°58'2019.7
2016-Jul-07 06:33N 28°44' W 014°43'1919.3
2016-Jul-07 05:33N 28°58' W 014°27'2019.6
2016-Jul-07 04:33N 29°12' W 014°11'2019.7
2016-Jul-07 03:33N 29°26' W 013°56'2019.5
2016-Jul-07 02:33N 29°40' W 013°40'55419.1
2016-Jul-05 21:30N 35°58' W 005°37'1515.8
2016-Jul-05 20:33N 36°02' W 005°19'20216.8
2016-Jul-05 08:31N 37°05' W 001°20'1819.4
2016-Jul-05 07:33N 37°16' W 001°02'1919.4
2016-Jul-05 06:33N 37°28' W 000°43'3819.1
2016-Jul-05 04:33N 37°59' W 000°14'2119.3
2016-Jul-05 03:27N 38°17' W 000°00'2019.2
2016-Jul-05 02:24N 38°34' E 000°15'5217.3
2016-Jul-04 23:25N 39°21' W 000°09'9 9.5
2016-Jul-04 22:28N 39°26' W 000°20'0 0.0
2016-Jul-04 21:28N 39°26' W 000°20'0 0.0
2016-Jul-04 19:31N 39°26' W 000°20'0 0.0
2016-Jul-04 18:28N 39°26' W 000°20'0 0.0
2016-Jul-04 17:16N 39°26' W 000°20'0 0.0
2016-Jul-04 16:28N 39°26' W 000°20'0 0.0
2016-Jul-04 15:28N 39°26' W 000°20'0 0.0
2016-Jul-04 14:31N 39°26' W 000°20'0 0.0
2016-Jul-04 13:28N 39°26' W 000°20'0 0.0
2016-Jul-04 12:28N 39°26' W 000°20'0 0.0
2016-Jul-04 11:28N 39°26' W 000°20'0 0.0
2016-Jul-04 10:32N 39°26' W 000°20'3 2.6
2016-Jul-04 09:33N 39°25' W 000°17'1 0.0
2016-Jul-02 23:33N 39°24' W 000°16'4 3.6
2016-Jul-02 22:33N 39°26' W 000°19'0 0.0
2016-Jul-02 21:33N 39°26' W 000°19'0 0.0
2016-Jul-02 20:30N 39°26' W 000°19'0 0.0
2016-Jul-02 19:18N 39°26' W 000°19'0 0.0
2016-Jul-02 17:33N 39°26' W 000°19'0 0.0
2016-Jul-02 16:30N 39°26' W 000°19'0 0.0
2016-Jul-02 15:33N 39°26' W 000°19'0 0.0
2016-Jul-02 14:30N 39°26' W 000°19'0 0.0
2016-Jul-02 13:30N 39°26' W 000°19'0 0.0
2016-Jul-02 12:33N 39°26' W 000°19'0 0.0
2016-Jul-02 11:33N 39°26' W 000°19'0 0.0
2016-Jul-02 10:30N 39°26' W 000°19'0 0.0
2016-Jul-02 09:33N 39°26' W 000°19'0 0.0
2016-Jul-02 08:33N 39°26' W 000°19'0 0.0
2016-Jul-02 07:30N 39°26' W 000°19'0 0.0
2016-Jul-02 06:33N 39°26' W 000°19'0 0.0
2016-Jul-02 04:33N 39°26' W 000°19'5 4.9
2016-Jul-02 03:33N 39°25' W 000°13'35 1.2
2016-Jun-30 21:33N 39°58' E 000°05'  

Dump ship's entire track history